sensor_id;sensor_type;location;lat;lon;timestamp;pressure;altitude;pressure_sealevel;temperature;humidity
72558;BME280;60583;50.094;8.748;2022-12-18T00:00:26;101955.50;;;-6.82;86.71
72558;BME280;60583;50.094;8.748;2022-12-18T00:02:51;101958.78;;;-6.77;88.37
72558;BME280;60583;50.094;8.748;2022-12-18T00:05:16;101955.94;;;-6.70;88.06
72558;BME280;60583;50.094;8.748;2022-12-18T00:07:42;101955.25;;;-6.75;86.38
72558;BME280;60583;50.094;8.748;2022-12-18T00:10:07;101947.47;;;-6.75;86.90
72558;BME280;60583;50.094;8.748;2022-12-18T00:12:33;101951.34;;;-6.88;88.09
72558;BME280;60583;50.094;8.748;2022-12-18T00:14:58;101950.84;;;-6.99;88.95
72558;BME280;60583;50.094;8.748;2022-12-18T00:17:23;101953.50;;;-7.00;89.05
72558;BME280;60583;50.094;8.748;2022-12-18T00:19:49;101950.22;;;-7.07;87.61
72558;BME280;60583;50.094;8.748;2022-12-18T00:22:17;101956.94;;;-7.00;89.24
72558;BME280;60583;50.094;8.748;2022-12-18T00:24:43;101958.53;;;-6.96;88.03
72558;BME280;60583;50.094;8.748;2022-12-18T00:27:08;101951.28;;;-6.86;88.48
72558;BME280;60583;50.094;8.748;2022-12-18T00:29:34;101960.31;;;-6.98;88.67
72558;BME280;60583;50.094;8.748;2022-12-18T00:31:59;101959.63;;;-7.03;87.79
72558;BME280;60583;50.094;8.748;2022-12-18T00:34:24;101959.19;;;-7.17;89.90
72558;BME280;60583;50.094;8.748;2022-12-18T00:36:50;101918.81;;;-7.50;89.74
72558;BME280;60583;50.094;8.748;2022-12-18T00:39:15;101950.00;;;-7.27;89.90
72558;BME280;60583;50.094;8.748;2022-12-18T00:41:40;101951.31;;;-7.13;88.39
72558;BME280;60583;50.094;8.748;2022-12-18T00:44:24;101939.59;;;-6.98;88.15
72558;BME280;60583;50.094;8.748;2022-12-18T00:46:50;101949.19;;;-7.28;88.64
72558;BME280;60583;50.094;8.748;2022-12-18T00:49:17;101939.00;;;-7.34;89.87
72558;BME280;60583;50.094;8.748;2022-12-18T00:51:43;101933.03;;;-7.36;89.44
72558;BME280;60583;50.094;8.748;2022-12-18T00:54:08;101954.25;;;-7.25;90.54
72558;BME280;60583;50.094;8.748;2022-12-18T00:56:35;101955.81;;;-7.19;88.56
72558;BME280;60583;50.094;8.748;2022-12-18T00:59:01;101959.78;;;-7.07;89.91
72558;BME280;60583;50.094;8.748;2022-12-18T01:01:27;101956.25;;;-7.05;88.94
72558;BME280;60583;50.094;8.748;2022-12-18T01:03:52;101963.50;;;-7.16;88.20
72558;BME280;60583;50.094;8.748;2022-12-18T01:06:18;101962.22;;;-7.31;88.16
72558;BME280;60583;50.094;8.748;2022-12-18T01:08:44;101970.69;;;-7.26;89.24
72558;BME280;60583;50.094;8.748;2022-12-18T01:11:11;101960.59;;;-7.07;89.78
72558;BME280;60583;50.094;8.748;2022-12-18T01:13:37;101963.72;;;-7.24;88.06
72558;BME280;60583;50.094;8.748;2022-12-18T01:16:03;101966.22;;;-7.21;89.09
72558;BME280;60583;50.094;8.748;2022-12-18T01:18:29;101966.88;;;-7.14;87.93
72558;BME280;60583;50.094;8.748;2022-12-18T01:20:54;101964.50;;;-7.20;87.88
72558;BME280;60583;50.094;8.748;2022-12-18T01:23:19;101965.53;;;-7.27;88.22
72558;BME280;60583;50.094;8.748;2022-12-18T01:25:45;101977.53;;;-7.23;88.43
72558;BME280;60583;50.094;8.748;2022-12-18T01:28:10;101974.25;;;-7.30;89.77
72558;BME280;60583;50.094;8.748;2022-12-18T01:30:36;101978.16;;;-7.15;90.35
72558;BME280;60583;50.094;8.748;2022-12-18T01:33:04;101964.50;;;-7.20;89.43
72558;BME280;60583;50.094;8.748;2022-12-18T01:35:30;101985.09;;;-7.17;87.64
72558;BME280;60583;50.094;8.748;2022-12-18T01:37:55;101985.47;;;-7.01;88.46
72558;BME280;60583;50.094;8.748;2022-12-18T01:40:20;101981.91;;;-6.97;86.84
72558;BME280;60583;50.094;8.748;2022-12-18T01:42:51;101989.63;;;-6.96;86.81
72558;BME280;60583;50.094;8.748;2022-12-18T01:47:52;102001.78;;;-6.98;88.64
72558;BME280;60583;50.094;8.748;2022-12-18T01:50:32;101992.53;;;-7.06;88.03
72558;BME280;60583;50.094;8.748;2022-12-18T01:53:03;101980.44;;;-7.06;88.18
72558;BME280;60583;50.094;8.748;2022-12-18T01:55:31;101986.03;;;-6.92;88.33
72558;BME280;60583;50.094;8.748;2022-12-18T01:57:59;101968.81;;;-6.93;86.74
72558;BME280;60583;50.094;8.748;2022-12-18T02:00:26;101978.31;;;-6.93;87.55
72558;BME280;60583;50.094;8.748;2022-12-18T02:02:52;101978.25;;;-6.92;86.53
72558;BME280;60583;50.094;8.748;2022-12-18T02:06:08;101993.94;;;-6.96;86.89
72558;BME280;60583;50.094;8.748;2022-12-18T02:11:05;101981.06;;;-6.98;86.62
72558;BME280;60583;50.094;8.748;2022-12-18T02:13:42;101975.03;;;-6.98;87.12
72558;BME280;60583;50.094;8.748;2022-12-18T02:16:44;101979.66;;;-7.08;85.65
72558;BME280;60583;50.094;8.748;2022-12-18T02:27:37;101969.06;;;-7.02;86.11
72558;BME280;60583;50.094;8.748;2022-12-18T02:30:05;101967.50;;;-7.06;86.90
72558;BME280;60583;50.094;8.748;2022-12-18T02:32:34;101967.78;;;-7.15;86.05
72558;BME280;60583;50.094;8.748;2022-12-18T02:35:02;101941.03;;;-7.16;85.80
72558;BME280;60583;50.094;8.748;2022-12-18T02:37:30;101946.13;;;-7.13;86.97
72558;BME280;60583;50.094;8.748;2022-12-18T02:39:58;101946.94;;;-7.12;85.22
72558;BME280;60583;50.094;8.748;2022-12-18T02:42:25;101951.09;;;-7.06;85.08
72558;BME280;60583;50.094;8.748;2022-12-18T02:44:51;101954.38;;;-7.01;84.46
72558;BME280;60583;50.094;8.748;2022-12-18T02:47:20;101968.03;;;-6.96;86.07
72558;BME280;60583;50.094;8.748;2022-12-18T02:58:04;101963.81;;;-6.99;85.85
72558;BME280;60583;50.094;8.748;2022-12-18T03:00:58;101962.22;;;-7.03;85.35
72558;BME280;60583;50.094;8.748;2022-12-18T03:03:30;101952.34;;;-7.18;85.99
72558;BME280;60583;50.094;8.748;2022-12-18T03:06:35;101965.91;;;-7.10;86.04
72558;BME280;60583;50.094;8.748;2022-12-18T03:09:07;101961.59;;;-7.11;84.51
72558;BME280;60583;50.094;8.748;2022-12-18T03:11:34;101959.34;;;-7.22;84.95
72558;BME280;60583;50.094;8.748;2022-12-18T03:14:22;101978.31;;;-7.21;85.57
72558;BME280;60583;50.094;8.748;2022-12-18T03:16:53;101991.97;;;-7.16;85.39
72558;BME280;60583;50.094;8.748;2022-12-18T03:19:22;101964.19;;;-7.11;85.65
72558;BME280;60583;50.094;8.748;2022-12-18T03:21:54;101961.69;;;-7.14;85.47
72558;BME280;60583;50.094;8.748;2022-12-18T03:24:21;101966.38;;;-7.25;84.16
72558;BME280;60583;50.094;8.748;2022-12-18T03:26:52;101958.47;;;-7.22;84.22
72558;BME280;60583;50.094;8.748;2022-12-18T03:29:24;101960.81;;;-7.13;84.92
72558;BME280;60583;50.094;8.748;2022-12-18T03:31:55;101958.91;;;-7.08;84.01
72558;BME280;60583;50.094;8.748;2022-12-18T03:34:28;101960.56;;;-7.05;83.82
72558;BME280;60583;50.094;8.748;2022-12-18T03:36:55;101960.81;;;-7.13;83.87
72558;BME280;60583;50.094;8.748;2022-12-18T03:39:20;101961.75;;;-7.16;84.69
72558;BME280;60583;50.094;8.748;2022-12-18T03:41:51;101958.47;;;-7.21;84.93
72558;BME280;60583;50.094;8.748;2022-12-18T03:44:48;101953.91;;;-7.14;85.18
72558;BME280;60583;50.094;8.748;2022-12-18T03:47:36;101962.88;;;-7.24;84.24
72558;BME280;60583;50.094;8.748;2022-12-18T03:50:21;101947.31;;;-7.24;83.84
72558;BME280;60583;50.094;8.748;2022-12-18T03:52:52;101962.97;;;-7.27;83.18
72558;BME280;60583;50.094;8.748;2022-12-18T03:55:20;101966.47;;;-7.28;82.85
72558;BME280;60583;50.094;8.748;2022-12-18T03:57:48;101961.28;;;-7.28;84.11
72558;BME280;60583;50.094;8.748;2022-12-18T04:00:17;101963.91;;;-7.30;84.29
72558;BME280;60583;50.094;8.748;2022-12-18T04:02:47;101954.31;;;-7.26;84.19
72558;BME280;60583;50.094;8.748;2022-12-18T04:05:15;101954.94;;;-7.20;83.29
72558;BME280;60583;50.094;8.748;2022-12-18T04:07:41;101955.25;;;-7.29;83.68
72558;BME280;60583;50.094;8.748;2022-12-18T04:10:11;101953.69;;;-7.34;85.30
72558;BME280;60583;50.094;8.748;2022-12-18T04:12:37;101963.25;;;-7.36;84.85
72558;BME280;60583;50.094;8.748;2022-12-18T04:15:04;101963.00;;;-7.29;84.13
72558;BME280;60583;50.094;8.748;2022-12-18T04:17:30;101964.53;;;-7.22;84.40
72558;BME280;60583;50.094;8.748;2022-12-18T04:19:55;101958.69;;;-7.28;85.09
72558;BME280;60583;50.094;8.748;2022-12-18T04:22:21;101957.19;;;-7.35;84.02
72558;BME280;60583;50.094;8.748;2022-12-18T04:24:46;101958.78;;;-7.31;84.91
72558;BME280;60583;50.094;8.748;2022-12-18T04:27:12;101954.44;;;-7.31;83.68
72558;BME280;60583;50.094;8.748;2022-12-18T04:29:37;101963.97;;;-7.31;83.90
72558;BME280;60583;50.094;8.748;2022-12-18T04:32:03;101961.06;;;-7.50;82.56
72558;BME280;60583;50.094;8.748;2022-12-18T04:34:29;101953.19;;;-7.45;82.64
72558;BME280;60583;50.094;8.748;2022-12-18T04:36:54;101952.88;;;-7.36;84.13
72558;BME280;60583;50.094;8.748;2022-12-18T04:39:20;101946.91;;;-7.38;85.62
72558;BME280;60583;50.094;8.748;2022-12-18T04:41:45;101946.00;;;-7.37;85.38
72558;BME280;60583;50.094;8.748;2022-12-18T04:44:11;101946.38;;;-7.49;85.65
72558;BME280;60583;50.094;8.748;2022-12-18T04:46:36;101952.19;;;-7.41;84.13
72558;BME280;60583;50.094;8.748;2022-12-18T04:49:01;101948.09;;;-7.48;84.87
72558;BME280;60583;50.094;8.748;2022-12-18T04:51:27;101947.16;;;-7.46;84.01
72558;BME280;60583;50.094;8.748;2022-12-18T04:53:53;101944.69;;;-7.50;84.07
72558;BME280;60583;50.094;8.748;2022-12-18T04:56:18;101952.88;;;-7.36;85.44
72558;BME280;60583;50.094;8.748;2022-12-18T04:58:44;101942.69;;;-7.42;83.80
72558;BME280;60583;50.094;8.748;2022-12-18T05:01:13;101949.41;;;-7.35;83.32
72558;BME280;60583;50.094;8.748;2022-12-18T05:03:39;101941.69;;;-7.37;84.13
72558;BME280;60583;50.094;8.748;2022-12-18T05:06:06;101946.69;;;-7.31;85.03
72558;BME280;60583;50.094;8.748;2022-12-18T05:08:32;101941.59;;;-7.34;84.38
72558;BME280;60583;50.094;8.748;2022-12-18T05:11:03;101946.44;;;-7.23;82.55
72558;BME280;60583;50.094;8.748;2022-12-18T05:13:28;101953.19;;;-7.45;83.52
72558;BME280;60583;50.094;8.748;2022-12-18T05:15:54;101955.00;;;-7.49;84.39
72558;BME280;60583;50.094;8.748;2022-12-18T05:18:20;101972.28;;;-7.49;84.22
72558;BME280;60583;50.094;8.748;2022-12-18T05:20:46;101975.00;;;-7.54;84.77
72558;BME280;60583;50.094;8.748;2022-12-18T05:23:11;101972.47;;;-7.55;84.03
72558;BME280;60583;50.094;8.748;2022-12-18T05:25:36;101970.00;;;-7.60;83.94
72558;BME280;60583;50.094;8.748;2022-12-18T05:28:02;101969.06;;;-7.57;84.30
72558;BME280;60583;50.094;8.748;2022-12-18T05:30:27;101974.16;;;-7.54;84.87
72558;BME280;60583;50.094;8.748;2022-12-18T05:32:53;101964.88;;;-7.61;84.46
72558;BME280;60583;50.094;8.748;2022-12-18T05:35:19;101976.31;;;-7.70;85.23
72558;BME280;60583;50.094;8.748;2022-12-18T05:37:44;101966.38;;;-7.84;83.67
72558;BME280;60583;50.094;8.748;2022-12-18T05:40:10;101970.91;;;-7.92;84.56
72558;BME280;60583;50.094;8.748;2022-12-18T05:42:36;101968.63;;;-8.02;84.24
72558;BME280;60583;50.094;8.748;2022-12-18T05:45:02;101964.31;;;-8.02;85.14
72558;BME280;60583;50.094;8.748;2022-12-18T05:47:28;101961.66;;;-8.00;83.70
72558;BME280;60583;50.094;8.748;2022-12-18T05:49:54;101958.97;;;-7.96;83.07
72558;BME280;60583;50.094;8.748;2022-12-18T05:52:19;101950.22;;;-7.92;83.42
72558;BME280;60583;50.094;8.748;2022-12-18T05:54:44;101949.28;;;-7.89;83.65
72558;BME280;60583;50.094;8.748;2022-12-18T05:57:10;101952.44;;;-7.78;83.63
72558;BME280;60583;50.094;8.748;2022-12-18T05:59:35;101955.94;;;-7.81;83.55
72558;BME280;60583;50.094;8.748;2022-12-18T06:02:00;101961.72;;;-8.02;83.89
72558;BME280;60583;50.094;8.748;2022-12-18T06:04:27;101954.84;;;-8.03;82.32
72558;BME280;60583;50.094;8.748;2022-12-18T06:06:54;101956.38;;;-7.96;81.56
72558;BME280;60583;50.094;8.748;2022-12-18T06:09:19;101949.56;;;-8.00;82.45
72558;BME280;60583;50.094;8.748;2022-12-18T06:11:45;101961.88;;;-8.08;81.62
72558;BME280;60583;50.094;8.748;2022-12-18T06:14:10;101973.94;;;-8.07;81.97
72558;BME280;60583;50.094;8.748;2022-12-18T06:16:35;101969.41;;;-8.00;81.53
72558;BME280;60583;50.094;8.748;2022-12-18T06:19:03;101972.84;;;-7.98;82.48
72558;BME280;60583;50.094;8.748;2022-12-18T06:21:30;101975.53;;;-8.03;81.38
72558;BME280;60583;50.094;8.748;2022-12-18T06:23:56;101972.06;;;-8.02;81.54
72558;BME280;60583;50.094;8.748;2022-12-18T06:26:22;101977.81;;;-7.91;80.88
72558;BME280;60583;50.094;8.748;2022-12-18T06:28:47;101981.53;;;-8.01;81.32
72558;BME280;60583;50.094;8.748;2022-12-18T06:31:13;101991.31;;;-8.12;81.77
72558;BME280;60583;50.094;8.748;2022-12-18T06:33:39;101986.00;;;-8.07;82.26
72558;BME280;60583;50.094;8.748;2022-12-18T06:36:10;101988.66;;;-8.09;81.37
72558;BME280;60583;50.094;8.748;2022-12-18T06:38:41;101987.88;;;-8.12;81.16
72558;BME280;60583;50.094;8.748;2022-12-18T06:41:14;102002.47;;;-8.10;80.90
72558;BME280;60583;50.094;8.748;2022-12-18T06:43:40;102004.81;;;-8.01;80.95
72558;BME280;60583;50.094;8.748;2022-12-18T06:46:06;102011.00;;;-8.06;80.26
72558;BME280;60583;50.094;8.748;2022-12-18T06:48:32;101998.00;;;-8.05;80.80
72558;BME280;60583;50.094;8.748;2022-12-18T06:50:58;102002.44;;;-8.08;80.82
72558;BME280;60583;50.094;8.748;2022-12-18T06:53:23;102001.78;;;-8.16;80.88
72558;BME280;60583;50.094;8.748;2022-12-18T06:55:49;101998.34;;;-8.17;81.52
72558;BME280;60583;50.094;8.748;2022-12-18T06:58:15;102003.50;;;-8.17;80.60
72558;BME280;60583;50.094;8.748;2022-12-18T07:00:40;102003.09;;;-8.02;80.81
72558;BME280;60583;50.094;8.748;2022-12-18T07:03:06;102001.72;;;-8.13;80.74
72558;BME280;60583;50.094;8.748;2022-12-18T07:05:31;102010.19;;;-8.08;79.73
72558;BME280;60583;50.094;8.748;2022-12-18T07:07:57;101999.16;;;-8.15;79.59
72558;BME280;60583;50.094;8.748;2022-12-18T07:10:22;102006.84;;;-8.12;79.32
72558;BME280;60583;50.094;8.748;2022-12-18T07:12:48;102012.06;;;-8.13;79.22
72558;BME280;60583;50.094;8.748;2022-12-18T07:15:13;102004.44;;;-8.19;80.05
72558;BME280;60583;50.094;8.748;2022-12-18T07:17:39;101990.28;;;-8.37;80.00
72558;BME280;60583;50.094;8.748;2022-12-18T07:20:04;102035.47;;;-8.19;79.87
72558;BME280;60583;50.094;8.748;2022-12-18T07:22:30;102038.13;;;-8.22;79.22
72558;BME280;60583;50.094;8.748;2022-12-18T07:24:56;102027.16;;;-8.29;79.87
72558;BME280;60583;50.094;8.748;2022-12-18T07:27:22;102023.53;;;-8.23;79.86
72558;BME280;60583;50.094;8.748;2022-12-18T07:29:47;102030.38;;;-8.21;79.72
72558;BME280;60583;50.094;8.748;2022-12-18T07:32:13;102017.44;;;-8.21;79.64
72558;BME280;60583;50.094;8.748;2022-12-18T07:34:38;102011.19;;;-8.14;80.00
72558;BME280;60583;50.094;8.748;2022-12-18T07:37:04;102010.41;;;-8.16;79.44
72558;BME280;60583;50.094;8.748;2022-12-18T07:39:29;102009.69;;;-8.22;79.04
72558;BME280;60583;50.094;8.748;2022-12-18T07:41:55;102013.78;;;-8.14;79.64
72558;BME280;60583;50.094;8.748;2022-12-18T07:44:39;102018.03;;;-8.11;79.15
72558;BME280;60583;50.094;8.748;2022-12-18T07:47:04;102019.28;;;-8.26;80.42
72558;BME280;60583;50.094;8.748;2022-12-18T07:49:29;102018.63;;;-8.02;80.43
72558;BME280;60583;50.094;8.748;2022-12-18T07:51:56;102009.88;;;-7.98;79.77
72558;BME280;60583;50.094;8.748;2022-12-18T07:54:23;102032.22;;;-7.94;79.02
72558;BME280;60583;50.094;8.748;2022-12-18T07:56:48;102020.00;;;-7.89;80.13
72558;BME280;60583;50.094;8.748;2022-12-18T07:59:14;102023.72;;;-7.99;80.70
72558;BME280;60583;50.094;8.748;2022-12-18T08:01:39;102012.97;;;-7.84;80.16
72558;BME280;60583;50.094;8.748;2022-12-18T08:04:05;102013.91;;;-8.18;81.33
72558;BME280;60583;50.094;8.748;2022-12-18T08:06:30;102025.66;;;-8.07;80.72
72558;BME280;60583;50.094;8.748;2022-12-18T08:08:56;102033.22;;;-7.99;81.69
72558;BME280;60583;50.094;8.748;2022-12-18T08:11:24;102027.19;;;-8.00;81.00
72558;BME280;60583;50.094;8.748;2022-12-18T08:13:50;102024.19;;;-7.85;81.07
72558;BME280;60583;50.094;8.748;2022-12-18T08:16:16;102028.34;;;-7.79;80.36
72558;BME280;60583;50.094;8.748;2022-12-18T08:18:41;102021.31;;;-7.74;80.78
72558;BME280;60583;50.094;8.748;2022-12-18T08:21:19;102029.66;;;-7.64;79.81
72558;BME280;60583;50.094;8.748;2022-12-18T08:23:46;102026.13;;;-7.60;80.49
72558;BME280;60583;50.094;8.748;2022-12-18T08:26:12;102025.41;;;-7.65;80.20
72558;BME280;60583;50.094;8.748;2022-12-18T08:28:38;102034.78;;;-7.61;79.00
72558;BME280;60583;50.094;8.748;2022-12-18T08:31:03;102045.78;;;-7.55;79.54
72558;BME280;60583;50.094;8.748;2022-12-18T08:33:29;102034.47;;;-7.51;79.11
72558;BME280;60583;50.094;8.748;2022-12-18T08:35:54;102039.59;;;-7.49;80.09
72558;BME280;60583;50.094;8.748;2022-12-18T08:38:19;102030.66;;;-7.39;80.94
72558;BME280;60583;50.094;8.748;2022-12-18T08:40:45;102032.53;;;-7.44;79.84
72558;BME280;60583;50.094;8.748;2022-12-18T08:43:11;102019.38;;;-7.37;81.14
72558;BME280;60583;50.094;8.748;2022-12-18T08:45:55;102015.63;;;-7.27;79.98
72558;BME280;60583;50.094;8.748;2022-12-18T08:48:21;102012.09;;;-7.24;80.35
72558;BME280;60583;50.094;8.748;2022-12-18T08:50:57;102013.66;;;-7.19;79.78
72558;BME280;60583;50.094;8.748;2022-12-18T08:53:23;102013.28;;;-7.06;81.08
72558;BME280;60583;50.094;8.748;2022-12-18T08:55:49;101974.56;;;-7.11;79.08
72558;BME280;60583;50.094;8.748;2022-12-18T08:58:14;102002.09;;;-6.81;80.86
72558;BME280;60583;50.094;8.748;2022-12-18T09:00:39;101989.34;;;-6.61;79.44
72558;BME280;60583;50.094;8.748;2022-12-18T09:03:05;101990.53;;;-6.44;79.89
72558;BME280;60583;50.094;8.748;2022-12-18T09:05:30;101998.44;;;-6.23;79.94
72558;BME280;60583;50.094;8.748;2022-12-18T09:07:56;101999.81;;;-6.13;79.75
72558;BME280;60583;50.094;8.748;2022-12-18T09:10:21;102009.25;;;-6.10;79.39
72558;BME280;60583;50.094;8.748;2022-12-18T09:12:48;102012.53;;;-6.05;80.45
72558;BME280;60583;50.094;8.748;2022-12-18T09:15:13;102015.81;;;-5.77;79.66
72558;BME280;60583;50.094;8.748;2022-12-18T09:17:38;102010.34;;;-5.69;78.50
72558;BME280;60583;50.094;8.748;2022-12-18T09:20:04;102002.66;;;-5.72;78.03
72558;BME280;60583;50.094;8.748;2022-12-18T09:22:30;102022.28;;;-5.64;77.83
72558;BME280;60583;50.094;8.748;2022-12-18T09:24:55;102020.38;;;-5.59;78.30
72558;BME280;60583;50.094;8.748;2022-12-18T09:27:21;102017.69;;;-5.57;77.20
72558;BME280;60583;50.094;8.748;2022-12-18T09:29:46;102016.63;;;-5.52;77.05
72558;BME280;60583;50.094;8.748;2022-12-18T09:32:12;102019.84;;;-5.22;76.61
72558;BME280;60583;50.094;8.748;2022-12-18T09:34:37;102020.28;;;-4.89;75.55
72558;BME280;60583;50.094;8.748;2022-12-18T09:37:02;102019.09;;;-4.39;73.27
72558;BME280;60583;50.094;8.748;2022-12-18T09:39:28;102015.34;;;-3.92;72.79
72558;BME280;60583;50.094;8.748;2022-12-18T09:41:56;102015.81;;;-3.45;70.54
72558;BME280;60583;50.094;8.748;2022-12-18T09:44:31;102011.44;;;-2.88;69.61
72558;BME280;60583;50.094;8.748;2022-12-18T09:47:15;102013.88;;;-2.67;67.83
72558;BME280;60583;50.094;8.748;2022-12-18T09:49:46;102014.16;;;-2.90;68.48
72558;BME280;60583;50.094;8.748;2022-12-18T09:52:40;102012.59;;;-2.58;68.60
72558;BME280;60583;50.094;8.748;2022-12-18T09:58:01;102022.16;;;-2.23;66.06
72558;BME280;60583;50.094;8.748;2022-12-18T10:00:27;102011.38;;;-2.00;66.11
72558;BME280;60583;50.094;8.748;2022-12-18T10:03:01;102011.75;;;-1.90;66.36
72558;BME280;60583;50.094;8.748;2022-12-18T10:08:24;102007.56;;;-2.27;66.48
72558;BME280;60583;50.094;8.748;2022-12-18T10:11:03;102007.47;;;-2.42;68.25
72558;BME280;60583;50.094;8.748;2022-12-18T10:13:47;102008.84;;;-2.18;68.24
72558;BME280;60583;50.094;8.748;2022-12-18T10:16:19;102017.66;;;-2.72;69.03
72558;BME280;60583;50.094;8.748;2022-12-18T10:21:47;102029.22;;;-2.08;67.01
72558;BME280;60583;50.094;8.748;2022-12-18T10:24:29;102021.41;;;-1.42;66.70
72558;BME280;60583;50.094;8.748;2022-12-18T10:26:59;102028.69;;;-1.32;63.98
72558;BME280;60583;50.094;8.748;2022-12-18T10:29:32;102003.97;;;-1.42;64.59
72558;BME280;60583;50.094;8.748;2022-12-18T10:31:57;101995.34;;;-1.44;64.57
72558;BME280;60583;50.094;8.748;2022-12-18T10:34:23;102013.63;;;-1.11;64.10
72558;BME280;60583;50.094;8.748;2022-12-18T10:36:49;102000.56;;;-1.28;64.17
72558;BME280;60583;50.094;8.748;2022-12-18T10:39:20;101985.06;;;-1.00;63.21
72558;BME280;60583;50.094;8.748;2022-12-18T10:41:47;101997.91;;;-1.11;63.07
72558;BME280;60583;50.094;8.748;2022-12-18T10:44:21;101993.25;;;-1.70;64.82
72558;BME280;60583;50.094;8.748;2022-12-18T10:46:49;101992.94;;;-1.64;65.13
72558;BME280;60583;50.094;8.748;2022-12-18T10:49:27;101998.81;;;-1.76;65.70
72558;BME280;60583;50.094;8.748;2022-12-18T10:52:14;102003.78;;;-2.21;67.12
72558;BME280;60583;50.094;8.748;2022-12-18T10:54:56;101998.94;;;-1.95;67.35
72558;BME280;60583;50.094;8.748;2022-12-18T10:59:54;102021.13;;;-2.54;68.89
72558;BME280;60583;50.094;8.748;2022-12-18T11:04:53;102024.22;;;-3.01;69.90
72558;BME280;60583;50.094;8.748;2022-12-18T11:07:19;101991.09;;;-2.99;70.42
72558;BME280;60583;50.094;8.748;2022-12-18T11:10:01;101992.53;;;-3.29;69.64
72558;BME280;60583;50.094;8.748;2022-12-18T11:12:28;102013.44;;;-2.58;69.56
72558;BME280;60583;50.094;8.748;2022-12-18T11:14:57;102008.59;;;-2.14;67.61
72558;BME280;60583;50.094;8.748;2022-12-18T11:17:29;101995.00;;;-2.03;66.47
72558;BME280;60583;50.094;8.748;2022-12-18T11:20:01;101984.28;;;-2.14;67.11
72558;BME280;60583;50.094;8.748;2022-12-18T11:22:30;102011.72;;;-1.73;65.34
72558;BME280;60583;50.094;8.748;2022-12-18T11:25:04;101994.06;;;-1.85;65.49
72558;BME280;60583;50.094;8.748;2022-12-18T11:27:31;101988.06;;;-1.54;65.26
72558;BME280;60583;50.094;8.748;2022-12-18T11:30:23;101983.59;;;-1.85;66.57
72558;BME280;60583;50.094;8.748;2022-12-18T11:32:54;101983.88;;;-2.07;67.42
72558;BME280;60583;50.094;8.748;2022-12-18T11:35:36;101978.94;;;-1.63;66.65
72558;BME280;60583;50.094;8.748;2022-12-18T11:38:10;101975.78;;;-1.37;65.86
72558;BME280;60583;50.094;8.748;2022-12-18T11:40:40;101974.91;;;-1.53;66.12
72558;BME280;60583;50.094;8.748;2022-12-18T11:43:17;101972.66;;;-1.91;67.65
72558;BME280;60583;50.094;8.748;2022-12-18T11:46:05;101975.38;;;-1.77;67.58
72558;BME280;60583;50.094;8.748;2022-12-18T11:48:33;101971.00;;;-1.77;67.21
72558;BME280;60583;50.094;8.748;2022-12-18T11:51:01;101971.94;;;-1.95;69.11
72558;BME280;60583;50.094;8.748;2022-12-18T11:53:29;101960.13;;;-2.02;68.42
72558;BME280;60583;50.094;8.748;2022-12-18T11:58:37;101964.13;;;-2.12;69.23
72558;BME280;60583;50.094;8.748;2022-12-18T12:13:13;101974.81;;;-2.34;71.55
72558;BME280;60583;50.094;8.748;2022-12-18T12:18:29;101959.47;;;-1.90;70.69
72558;BME280;60583;50.094;8.748;2022-12-18T12:26:34;101959.19;;;-2.87;74.22
72558;BME280;60583;50.094;8.748;2022-12-18T12:29:19;101961.59;;;-2.82;73.51
72558;BME280;60583;50.094;8.748;2022-12-18T12:32:09;101955.66;;;-2.86;73.92
72558;BME280;60583;50.094;8.748;2022-12-18T12:37:39;101961.97;;;-2.90;74.27
72558;BME280;60583;50.094;8.748;2022-12-18T12:40:14;101975.94;;;-3.09;74.84
72558;BME280;60583;50.094;8.748;2022-12-18T12:42:48;101958.13;;;-3.37;77.10
72558;BME280;60583;50.094;8.748;2022-12-18T12:48:16;101915.91;;;-3.27;77.07
72558;BME280;60583;50.094;8.748;2022-12-18T12:50:42;101903.09;;;-3.31;77.18
72558;BME280;60583;50.094;8.748;2022-12-18T12:53:17;101936.63;;;-3.05;76.66
72558;BME280;60583;50.094;8.748;2022-12-18T12:55:44;101924.38;;;-3.22;77.65
72558;BME280;60583;50.094;8.748;2022-12-18T12:58:33;101926.69;;;-3.15;77.55
72558;BME280;60583;50.094;8.748;2022-12-18T13:01:12;101916.59;;;-3.40;77.86
72558;BME280;60583;50.094;8.748;2022-12-18T13:04:03;101927.97;;;-3.24;77.92
72558;BME280;60583;50.094;8.748;2022-12-18T13:06:42;101930.50;;;-3.22;78.86
72558;BME280;60583;50.094;8.748;2022-12-18T13:09:10;101934.16;;;-3.27;79.38
72558;BME280;60583;50.094;8.748;2022-12-18T13:11:43;101928.53;;;-3.36;79.37
72558;BME280;60583;50.094;8.748;2022-12-18T13:14:29;101923.06;;;-3.49;79.69
72558;BME280;60583;50.094;8.748;2022-12-18T13:17:23;101937.84;;;-3.49;79.74
72558;BME280;60583;50.094;8.748;2022-12-18T13:20:13;101923.06;;;-3.49;79.98
72558;BME280;60583;50.094;8.748;2022-12-18T13:22:45;101922.16;;;-3.48;79.69
72558;BME280;60583;50.094;8.748;2022-12-18T13:25:36;101924.03;;;-3.51;80.64
72558;BME280;60583;50.094;8.748;2022-12-18T13:31:06;101900.66;;;-3.53;80.97
72558;BME280;60583;50.094;8.748;2022-12-18T13:33:43;101913.47;;;-3.48;80.33
72558;BME280;60583;50.094;8.748;2022-12-18T13:36:16;101919.59;;;-3.49;81.13
72558;BME280;60583;50.094;8.748;2022-12-18T13:39:09;101924.59;;;-3.45;80.03
72558;BME280;60583;50.094;8.748;2022-12-18T13:41:34;101918.84;;;-3.51;80.87
72558;BME280;60583;50.094;8.748;2022-12-18T13:46:55;101908.69;;;-3.39;81.96
72558;BME280;60583;50.094;8.748;2022-12-18T13:49:26;101921.94;;;-3.43;80.22
72558;BME280;60583;50.094;8.748;2022-12-18T13:51:56;101912.53;;;-3.47;81.59
72558;BME280;60583;50.094;8.748;2022-12-18T13:54:33;101894.03;;;-3.41;81.67
72558;BME280;60583;50.094;8.748;2022-12-18T13:57:00;101891.91;;;-3.52;81.48
72558;BME280;60583;50.094;8.748;2022-12-18T13:59:37;101884.44;;;-3.41;81.18
72558;BME280;60583;50.094;8.748;2022-12-18T14:02:23;101886.69;;;-3.52;82.59
72558;BME280;60583;50.094;8.748;2022-12-18T14:04:50;101876.84;;;-3.45;82.62
72558;BME280;60583;50.094;8.748;2022-12-18T14:07:18;101879.59;;;-3.48;82.21
72558;BME280;60583;50.094;8.748;2022-12-18T14:09:53;101870.38;;;-3.55;82.71
72558;BME280;60583;50.094;8.748;2022-12-18T14:12:24;101874.53;;;-3.51;82.58